createdAt,value
2023-04-16T00:01:14.501Z,9.75
2023-04-16T00:03:42.931Z,9.83
2023-04-16T00:06:12.609Z,9.91
2023-04-16T00:08:41.270Z,9.89
2023-04-16T00:11:09.440Z,9.73
2023-04-16T00:13:37.832Z,9.85
2023-04-16T00:16:06.613Z,9.96
2023-04-16T00:18:34.698Z,10.22
2023-04-16T00:21:02.772Z,10.43
2023-04-16T00:23:31.243Z,10.43
2023-04-16T00:26:00.297Z,10.24
2023-04-16T00:28:28.483Z,10.13
2023-04-16T00:30:56.853Z,10.05
2023-04-16T00:33:25.040Z,10.16
2023-04-16T00:35:53.214Z,10.28
2023-04-16T00:38:21.295Z,10.25
2023-04-16T00:40:50.341Z,10.25
2023-04-16T00:43:26.295Z,10.22
2023-04-16T00:45:57.034Z,10.27
2023-04-16T00:48:27.977Z,10.12
2023-04-16T00:50:56.522Z,9.93
2023-04-16T00:53:24.931Z,10.04
2023-04-16T00:55:53.796Z,10.14
2023-04-16T00:58:22.109Z,10.00
2023-04-16T01:00:50.862Z,9.64
2023-04-16T01:03:19.167Z,9.45
2023-04-16T01:05:49.447Z,9.33
2023-04-16T01:08:18.981Z,9.31
2023-04-16T01:10:47.171Z,9.26
2023-04-16T01:13:15.935Z,9.24
2023-04-16T01:15:44.170Z,9.31
2023-04-16T01:18:20.163Z,9.49
2023-04-16T01:20:49.203Z,9.52
2023-04-16T01:23:20.720Z,9.57
2023-04-16T01:25:48.698Z,9.65
2023-04-16T01:28:17.275Z,9.53
2023-04-16T01:30:45.899Z,9.41
2023-04-16T01:33:25.845Z,9.36
2023-04-16T01:35:54.224Z,9.22
2023-04-16T01:38:22.359Z,9.10
2023-04-16T01:40:50.878Z,9.18
2023-04-16T01:43:18.939Z,9.46
2023-04-16T01:45:46.989Z,9.83
2023-04-16T01:48:15.182Z,9.98
2023-04-16T01:50:43.570Z,9.93
2023-04-16T01:53:11.838Z,9.76
2023-04-16T01:55:40.215Z,9.79
2023-04-16T01:58:11.172Z,9.81
2023-04-16T02:00:39.666Z,9.87
2023-04-16T02:03:07.978Z,9.96
2023-04-16T02:05:36.286Z,9.79
2023-04-16T02:08:05.268Z,9.54
2023-04-16T02:10:33.499Z,9.42
2023-04-16T02:13:01.876Z,9.47
2023-04-16T02:15:30.098Z,9.49
2023-04-16T02:17:58.500Z,9.47
2023-04-16T02:20:26.945Z,9.40
2023-04-16T02:22:57.784Z,9.44
2023-04-16T02:25:26.284Z,9.43
2023-04-16T02:27:54.954Z,9.50
2023-04-16T02:30:28.760Z,9.55
2023-04-16T02:32:56.845Z,9.59
2023-04-16T02:35:25.518Z,9.59
2023-04-16T02:37:53.688Z,9.56
2023-04-16T02:40:21.872Z,9.50
2023-04-16T02:42:50.033Z,9.38
2023-04-16T02:45:18.206Z,9.26
2023-04-16T02:47:48.415Z,9.21
2023-04-16T02:50:17.623Z,9.22
2023-04-16T02:52:46.038Z,9.21
2023-04-16T02:55:14.170Z,8.88
2023-04-16T02:57:42.714Z,8.43
2023-04-16T03:00:11.338Z,8.37
2023-04-16T03:02:39.933Z,8.41
2023-04-16T03:05:09.097Z,8.55
2023-04-16T03:07:39.333Z,8.76
2023-04-16T03:10:08.432Z,8.66
2023-04-16T03:12:36.512Z,8.52
2023-04-16T03:15:08.676Z,8.70
2023-04-16T03:17:37.218Z,8.93
2023-04-16T03:20:06.431Z,9.03
2023-04-16T03:22:34.924Z,9.06
2023-04-16T03:25:03.006Z,8.85
2023-04-16T03:27:33.193Z,8.81
2023-04-16T03:30:02.221Z,8.81
2023-04-16T03:32:30.629Z,8.57
2023-04-16T03:34:59.093Z,8.35
2023-04-16T03:37:27.263Z,8.21
2023-04-16T03:39:55.419Z,8.41
2023-04-16T03:42:23.485Z,8.45
2023-04-16T03:44:53.820Z,8.50
2023-04-16T03:47:22.684Z,8.56
2023-04-16T03:49:51.900Z,8.50
2023-04-16T03:52:20.310Z,8.60
2023-04-16T03:54:48.660Z,8.78
2023-04-16T03:57:25.456Z,8.98
2023-04-16T03:59:54.884Z,9.04
2023-04-16T04:02:23.630Z,8.65
2023-04-16T04:04:53.692Z,8.65
2023-04-16T04:07:21.805Z,8.52
2023-04-16T04:09:50.302Z,8.63
2023-04-16T04:12:18.560Z,8.59
2023-04-16T04:14:47.147Z,8.48
2023-04-16T04:17:15.655Z,8.63
2023-04-16T04:19:54.359Z,8.80
2023-04-16T04:22:29.586Z,9.06
2023-04-16T04:24:58.075Z,9.44
2023-04-16T04:27:27.824Z,9.56
2023-04-16T04:29:56.778Z,9.64
2023-04-16T04:32:26.052Z,9.65
2023-04-16T04:34:54.643Z,9.56
2023-04-16T04:37:23.222Z,9.70
2023-04-16T04:39:51.501Z,9.95
2023-04-16T04:42:21.205Z,10.37
2023-04-16T04:44:49.265Z,10.74
2023-04-16T04:47:17.445Z,11.11
2023-04-16T04:49:46.047Z,11.74
2023-04-16T04:52:14.344Z,12.27
2023-04-16T04:54:42.552Z,12.62
2023-04-16T04:57:10.648Z,12.80
2023-04-16T04:59:38.848Z,13.42
2023-04-16T05:02:07.453Z,13.84
2023-04-16T05:04:35.618Z,14.27
2023-04-16T05:07:03.788Z,15.00
2023-04-16T05:09:31.845Z,15.49
2023-04-16T05:12:00.288Z,15.49
2023-04-16T05:14:28.408Z,15.46
2023-04-16T05:16:56.632Z,15.40
2023-04-16T05:19:24.930Z,15.39
2023-04-16T05:21:53.050Z,15.50
2023-04-16T05:24:21.282Z,15.78
2023-04-16T05:26:49.346Z,15.90
2023-04-16T05:29:17.827Z,15.83
2023-04-16T05:31:45.962Z,15.78
2023-04-16T05:34:14.102Z,15.84
2023-04-16T05:36:43.259Z,16.03
2023-04-16T05:39:11.725Z,15.84
2023-04-16T05:41:39.912Z,15.50
2023-04-16T05:44:07.932Z,15.53
2023-04-16T05:46:36.305Z,16.32
2023-04-16T05:49:04.724Z,17.11
2023-04-16T05:51:33.200Z,17.89
2023-04-16T05:54:01.205Z,18.74
2023-04-16T05:56:29.536Z,19.85
2023-04-16T05:58:58.190Z,21.06
2023-04-16T06:01:26.534Z,22.02
2023-04-16T06:03:54.857Z,22.60
2023-04-16T06:06:23.090Z,22.94
2023-04-16T06:08:51.111Z,23.73
2023-04-16T06:11:19.157Z,24.31
2023-04-16T06:13:47.175Z,24.59
2023-04-16T06:16:15.546Z,23.75
2023-04-16T06:18:43.644Z,23.10
2023-04-16T06:21:11.784Z,23.17
2023-04-16T06:23:39.770Z,22.33
2023-04-16T06:26:08.159Z,22.81
2023-04-16T06:28:36.176Z,23.40
2023-04-16T06:31:04.996Z,23.99
2023-04-16T06:33:33.286Z,24.49
2023-04-16T06:36:01.355Z,25.10
2023-04-16T06:38:29.435Z,25.45
2023-04-16T06:40:58.644Z,25.86
2023-04-16T06:43:27.220Z,25.29
2023-04-16T06:45:56.371Z,25.20
2023-04-16T06:48:24.593Z,24.58
2023-04-16T06:50:52.836Z,24.59
2023-04-16T06:53:21.240Z,24.77
2023-04-16T06:55:49.621Z,24.26
2023-04-16T06:58:17.772Z,23.69
2023-04-16T07:00:46.170Z,23.64
2023-04-16T07:03:14.845Z,23.49
2023-04-16T07:05:42.840Z,23.33
2023-04-16T07:08:11.403Z,23.20
2023-04-16T07:10:39.526Z,23.12
2023-04-16T07:13:07.577Z,23.13
2023-04-16T07:15:36.027Z,23.27
2023-04-16T07:18:04.466Z,23.40
2023-04-16T07:20:32.556Z,23.38
2023-04-16T07:23:00.851Z,23.34
2023-04-16T07:25:29.022Z,22.61
2023-04-16T07:27:57.202Z,21.47
2023-04-16T07:30:25.481Z,21.15
2023-04-16T07:32:56.059Z,20.67
2023-04-16T07:35:24.282Z,19.40
2023-04-16T07:37:52.271Z,18.43
2023-04-16T07:40:20.729Z,17.93
2023-04-16T07:42:48.826Z,17.91
2023-04-16T07:45:18.100Z,17.91
2023-04-16T07:47:46.465Z,18.02
2023-04-16T07:50:14.652Z,17.83
2023-04-16T07:52:43.782Z,17.77
2023-04-16T07:55:11.918Z,17.80
2023-04-16T07:57:41.523Z,17.99
2023-04-16T08:00:11.059Z,18.12
2023-04-16T08:02:43.347Z,18.16
2023-04-16T08:05:12.668Z,18.16
2023-04-16T08:07:41.187Z,18.46
2023-04-16T08:10:09.678Z,18.70
2023-04-16T08:12:37.704Z,18.72
2023-04-16T08:15:06.726Z,18.96
2023-04-16T08:17:35.275Z,19.30
2023-04-16T08:20:04.041Z,19.33
2023-04-16T08:22:33.234Z,19.26
2023-04-16T08:25:01.806Z,19.58
2023-04-16T08:27:29.949Z,20.01
2023-04-16T08:29:58.065Z,20.31
2023-04-16T08:32:27.336Z,20.52
2023-04-16T08:34:55.616Z,20.78
2023-04-16T08:37:23.899Z,21.14
2023-04-16T08:39:52.152Z,21.62
2023-04-16T08:42:33.165Z,21.76
2023-04-16T08:45:11.311Z,21.76
2023-04-16T08:47:40.122Z,21.85
2023-04-16T08:50:09.213Z,22.12
2023-04-16T08:52:43.252Z,21.58
2023-04-16T08:55:15.016Z,20.71
2023-04-16T08:58:04.251Z,20.31
2023-04-16T09:00:33.878Z,19.35
2023-04-16T09:03:03.355Z,19.42
2023-04-16T09:05:33.494Z,19.26
2023-04-16T09:08:01.751Z,18.91
2023-04-16T09:10:30.036Z,18.62
2023-04-16T09:12:58.832Z,18.07
2023-04-16T09:15:27.812Z,18.33
2023-04-16T09:17:57.629Z,18.92
2023-04-16T09:20:26.325Z,19.41
2023-04-16T09:22:54.692Z,19.88
2023-04-16T09:25:23.245Z,20.16
2023-04-16T09:27:51.449Z,20.61
2023-04-16T09:30:22.010Z,21.16
2023-04-16T09:32:51.761Z,21.58
2023-04-16T09:35:20.667Z,21.27
2023-04-16T09:37:58.298Z,20.10
2023-04-16T09:40:30.489Z,20.60
2023-04-16T09:43:00.892Z,20.92
2023-04-16T09:45:32.815Z,21.10
2023-04-16T09:48:06.125Z,21.33
2023-04-16T09:50:34.249Z,21.71
2023-04-16T09:53:03.708Z,22.09
2023-04-16T09:55:32.894Z,21.87
2023-04-16T09:58:01.967Z,21.66
2023-04-16T10:00:31.655Z,21.58
2023-04-16T10:03:07.324Z,21.44
2023-04-16T10:05:37.017Z,20.87
2023-04-16T10:08:12.379Z,20.87
2023-04-16T10:10:41.612Z,21.61
2023-04-16T10:13:10.827Z,22.18
2023-04-16T10:15:39.280Z,22.52
2023-04-16T10:18:07.752Z,22.25
2023-04-16T10:20:37.051Z,21.96
2023-04-16T10:23:06.274Z,21.44
2023-04-16T10:25:35.045Z,21.97
2023-04-16T10:28:03.558Z,22.52
2023-04-16T10:30:31.950Z,22.96
2023-04-16T10:33:02.162Z,23.27
2023-04-16T10:35:31.314Z,23.39
2023-04-16T10:38:22.436Z,23.51
2023-04-16T10:40:51.016Z,23.80
2023-04-16T10:43:20.006Z,24.23
2023-04-16T10:45:48.841Z,24.69
2023-04-16T10:48:19.322Z,24.67
2023-04-16T10:50:58.455Z,24.72
2023-04-16T10:53:27.981Z,24.73
2023-04-16T10:55:57.912Z,24.98
2023-04-16T10:58:30.712Z,25.12
2023-04-16T11:01:01.284Z,25.08
2023-04-16T11:03:32.771Z,25.23
2023-04-16T11:06:16.788Z,25.22
2023-04-16T11:11:19.575Z,25.01
2023-04-16T11:13:48.119Z,24.92
2023-04-16T11:16:16.727Z,25.04
2023-04-16T11:18:51.349Z,24.82
2023-04-16T11:21:20.661Z,24.54
2023-04-16T11:23:53.866Z,23.82
2023-04-16T11:26:28.301Z,23.42
2023-04-16T11:28:57.376Z,23.35
2023-04-16T11:31:31.840Z,23.34
2023-04-16T11:34:01.098Z,23.53
2023-04-16T11:36:42.475Z,23.60
2023-04-16T11:39:10.686Z,23.65
2023-04-16T11:41:47.733Z,23.54
2023-04-16T11:44:27.523Z,23.67
2023-04-16T11:46:55.709Z,23.99
2023-04-16T11:49:31.075Z,24.05
2023-04-16T11:51:59.141Z,23.88
2023-04-16T11:54:27.342Z,23.90
2023-04-16T11:56:55.610Z,24.01
2023-04-16T11:59:24.062Z,24.19
2023-04-16T12:01:55.881Z,24.33
2023-04-16T12:04:26.370Z,24.68
2023-04-16T12:07:10.831Z,24.98
2023-04-16T12:09:43.614Z,25.18
2023-04-16T12:12:32.435Z,25.17
2023-04-16T12:15:05.406Z,25.19
2023-04-16T12:17:35.393Z,25.11
2023-04-16T12:20:09.642Z,25.14
2023-04-16T12:22:39.714Z,25.10
2023-04-16T12:25:16.359Z,24.70
2023-04-16T12:27:56.098Z,24.69
2023-04-16T12:30:31.015Z,24.75
2023-04-16T12:33:19.424Z,24.82
2023-04-16T12:35:47.710Z,24.74
2023-04-16T12:38:16.302Z,24.28
2023-04-16T12:40:44.542Z,24.19
2023-04-16T12:43:13.264Z,24.28
2023-04-16T12:45:41.618Z,24.31
2023-04-16T12:48:09.793Z,24.24
2023-04-16T12:50:39.864Z,24.08
2023-04-16T12:53:08.375Z,23.99
2023-04-16T12:55:36.759Z,23.81
2023-04-16T12:58:04.824Z,23.52
2023-04-16T13:00:32.901Z,23.41
2023-04-16T13:03:01.327Z,23.17
2023-04-16T13:05:29.594Z,22.93
2023-04-16T13:07:57.846Z,22.63
2023-04-16T13:10:27.857Z,22.54
2023-04-16T13:12:56.121Z,22.62
2023-04-16T13:15:24.139Z,22.77
2023-04-16T13:17:52.322Z,22.78
2023-04-16T13:20:21.916Z,22.95
2023-04-16T13:22:51.481Z,22.98
2023-04-16T13:25:19.561Z,22.99
2023-04-16T13:27:47.637Z,22.95
2023-04-16T13:30:16.511Z,22.73
2023-04-16T13:32:44.809Z,22.35
2023-04-16T13:35:13.283Z,20.18
2023-04-16T13:37:41.441Z,17.77
2023-04-16T13:40:09.822Z,17.11
2023-04-16T13:42:37.895Z,16.89
2023-04-16T13:45:06.574Z,16.71
2023-04-16T13:47:35.311Z,16.57
2023-04-16T13:50:04.088Z,16.36
2023-04-16T13:52:32.422Z,16.21
2023-04-16T13:55:01.766Z,15.92
2023-04-16T13:57:29.998Z,15.79
2023-04-16T13:59:58.273Z,15.90
2023-04-16T14:02:26.925Z,15.84
2023-04-16T14:04:55.361Z,15.83
2023-04-16T14:07:27.192Z,15.70
2023-04-16T14:09:55.544Z,15.67
2023-04-16T14:12:23.593Z,15.77
2023-04-16T14:14:51.604Z,15.97
2023-04-16T14:17:19.710Z,16.01
2023-04-16T14:19:47.927Z,16.06
2023-04-16T14:22:18.079Z,16.04
2023-04-16T14:24:46.328Z,15.98
2023-04-16T14:27:14.634Z,16.02
2023-04-16T14:29:43.845Z,15.71
2023-04-16T14:32:12.585Z,15.90
2023-04-16T14:34:40.893Z,16.18
2023-04-16T14:37:09.166Z,16.36
2023-04-16T14:39:39.164Z,16.54
2023-04-16T14:42:07.364Z,16.58
2023-04-16T14:44:35.646Z,16.73
2023-04-16T14:47:03.690Z,16.75
2023-04-16T14:49:32.517Z,16.69
2023-04-16T14:52:02.732Z,16.83
2023-04-16T14:54:32.036Z,16.95
2023-04-16T14:57:00.594Z,17.00
2023-04-16T14:59:28.880Z,16.78
2023-04-16T15:01:58.198Z,16.66
2023-04-16T15:04:26.575Z,16.78
2023-04-16T15:06:59.048Z,16.74
2023-04-16T15:09:27.623Z,16.78
2023-04-16T15:11:57.039Z,16.78
2023-04-16T15:14:25.303Z,16.96
2023-04-16T15:16:53.943Z,17.03
2023-04-16T15:19:22.550Z,16.80
2023-04-16T15:21:50.933Z,16.76
2023-04-16T15:24:19.280Z,16.83
2023-04-16T15:26:47.486Z,16.78
2023-04-16T15:29:16.102Z,16.71
2023-04-16T15:31:44.409Z,16.42
2023-04-16T15:34:12.738Z,16.41
2023-04-16T15:36:42.188Z,16.47
2023-04-16T15:39:11.202Z,16.51
2023-04-16T15:41:50.130Z,16.53
2023-04-16T15:44:25.587Z,16.50
2023-04-16T15:46:53.659Z,16.42
2023-04-16T15:49:21.842Z,16.33
2023-04-16T15:51:50.009Z,16.25
2023-04-16T15:54:18.598Z,16.25
2023-04-16T15:56:47.387Z,16.26
2023-04-16T15:59:15.521Z,16.26
2023-04-16T16:01:43.830Z,16.27
2023-04-16T16:04:12.630Z,16.26
2023-04-16T16:06:42.011Z,16.30
2023-04-16T16:09:11.144Z,16.47
2023-04-16T16:11:39.477Z,16.66
2023-04-16T16:14:07.683Z,16.82
2023-04-16T16:16:36.540Z,16.94
2023-04-16T16:19:04.774Z,17.05
2023-04-16T16:21:33.015Z,17.00
2023-04-16T16:24:01.206Z,16.99
2023-04-16T16:26:29.652Z,17.05
2023-04-16T16:28:57.734Z,17.04
2023-04-16T16:31:26.192Z,17.06
2023-04-16T16:33:54.446Z,17.15
2023-04-16T16:36:22.557Z,17.32
2023-04-16T16:38:50.722Z,17.42
2023-04-16T16:41:18.781Z,17.44
2023-04-16T16:43:47.048Z,17.52
2023-04-16T16:46:15.159Z,17.61
2023-04-16T16:48:43.325Z,17.64
2023-04-16T16:51:11.505Z,17.48
2023-04-16T16:53:39.508Z,17.30
2023-04-16T16:56:07.560Z,17.16
2023-04-16T16:58:36.017Z,17.07
2023-04-16T17:01:04.474Z,16.88
2023-04-16T17:03:34.405Z,16.58
2023-04-16T17:06:02.557Z,16.39
2023-04-16T17:08:30.854Z,16.37
2023-04-16T17:11:03.553Z,16.46
2023-04-16T17:13:32.860Z,16.35
2023-04-16T17:16:01.473Z,16.13
2023-04-16T17:18:29.793Z,16.03
2023-04-16T17:20:58.172Z,15.92
2023-04-16T17:23:26.456Z,16.01
2023-04-16T17:25:54.932Z,15.85
2023-04-16T17:28:23.117Z,15.47
2023-04-16T17:30:53.425Z,15.40
2023-04-16T17:33:21.664Z,15.48
2023-04-16T17:35:50.097Z,15.62
2023-04-16T17:38:18.358Z,15.81
2023-04-16T17:40:46.499Z,15.92
2023-04-16T17:43:14.596Z,16.06
2023-04-16T17:45:42.597Z,16.17
2023-04-16T17:48:11.164Z,16.25
2023-04-16T17:50:39.797Z,16.22
2023-04-16T17:53:08.015Z,16.20
2023-04-16T17:55:36.711Z,16.29
2023-04-16T17:58:04.962Z,16.35
2023-04-16T18:00:33.034Z,16.40
2023-04-16T18:03:01.176Z,16.47
2023-04-16T18:05:30.614Z,16.55
2023-04-16T18:07:58.716Z,16.59
2023-04-16T18:10:27.046Z,16.63
2023-04-16T18:12:55.139Z,16.65
2023-04-16T18:15:23.333Z,16.61
2023-04-16T18:17:51.509Z,16.57
2023-04-16T18:20:20.059Z,16.54
2023-04-16T18:22:48.345Z,16.55
2023-04-16T18:25:16.534Z,16.53
2023-04-16T18:27:47.447Z,16.48
2023-04-16T18:30:22.975Z,16.44
2023-04-16T18:33:10.113Z,16.36
2023-04-16T18:35:42.481Z,16.26
2023-04-16T18:38:11.069Z,16.18
2023-04-16T18:40:39.848Z,16.04
2023-04-16T18:43:07.997Z,15.96
2023-04-16T18:45:36.345Z,15.89
2023-04-16T18:48:04.892Z,15.77
2023-04-16T18:50:32.927Z,15.75
2023-04-16T18:53:01.233Z,15.75
2023-04-16T18:55:30.425Z,15.69
2023-04-16T18:57:58.606Z,15.72
2023-04-16T19:00:26.925Z,15.76
2023-04-16T19:05:23.605Z,15.75
2023-04-16T19:07:51.640Z,15.71
2023-04-16T19:10:19.872Z,15.74
2023-04-16T19:12:48.873Z,15.67
2023-04-16T19:15:17.265Z,15.61
2023-04-16T19:17:45.542Z,15.58
2023-04-16T19:20:13.882Z,15.57
2023-04-16T19:22:41.906Z,15.56
2023-04-16T19:25:10.966Z,15.56
2023-04-16T19:27:39.153Z,15.54
2023-04-16T19:30:07.938Z,15.39
2023-04-16T19:32:36.649Z,15.32
2023-04-16T19:35:05.265Z,15.21
2023-04-16T19:37:33.469Z,15.12
2023-04-16T19:40:02.084Z,14.93
2023-04-16T19:42:30.761Z,14.86
2023-04-16T19:44:59.115Z,14.86
2023-04-16T19:47:27.607Z,14.81
2023-04-16T19:49:55.877Z,14.79
2023-04-16T19:52:24.557Z,14.81
2023-04-16T19:54:52.808Z,14.79
2023-04-16T19:57:21.109Z,14.77
2023-04-16T19:59:49.593Z,14.76
2023-04-16T20:02:17.822Z,14.73
2023-04-16T20:04:48.191Z,14.72
2023-04-16T20:07:16.269Z,14.74
2023-04-16T20:09:44.528Z,14.67
2023-04-16T20:12:12.909Z,14.69
2023-04-16T20:14:42.049Z,14.72
2023-04-16T20:17:10.425Z,14.70
2023-04-16T20:19:38.637Z,14.60
2023-04-16T20:22:06.725Z,14.39
2023-04-16T20:24:34.858Z,14.11
2023-04-16T20:27:02.879Z,13.90
2023-04-16T20:29:30.990Z,13.76
2023-04-16T20:31:59.054Z,13.75
2023-04-16T20:34:28.041Z,13.66
2023-04-16T20:36:58.133Z,13.64
2023-04-16T20:39:27.516Z,13.66
2023-04-16T20:41:58.662Z,13.72
2023-04-16T20:44:33.446Z,13.75
2023-04-16T20:47:02.039Z,13.76
2023-04-16T20:49:30.277Z,13.80
2023-04-16T20:51:58.730Z,13.83
2023-04-16T20:54:27.256Z,13.83
2023-04-16T20:56:56.230Z,13.86
2023-04-16T20:59:24.994Z,13.95
2023-04-16T21:01:53.357Z,13.99
2023-04-16T21:04:21.798Z,13.99
2023-04-16T21:06:53.647Z,13.98
2023-04-16T21:09:21.932Z,14.01
2023-04-16T21:11:50.053Z,14.03
2023-04-16T21:14:18.744Z,14.00
2023-04-16T21:16:46.902Z,13.95
2023-04-16T21:19:14.975Z,13.86
2023-04-16T21:21:43.567Z,13.79
2023-04-16T21:24:11.786Z,13.81
2023-04-16T21:26:39.816Z,13.84
2023-04-16T21:29:07.883Z,13.91
2023-04-16T21:31:36.427Z,13.94
2023-04-16T21:34:04.471Z,13.92
2023-04-16T21:36:34.113Z,13.93
2023-04-16T21:39:02.741Z,13.98
2023-04-16T21:41:31.176Z,14.03
2023-04-16T21:43:59.483Z,14.03
2023-04-16T21:46:28.018Z,14.03
2023-04-16T21:48:56.482Z,14.04
2023-04-16T21:51:29.236Z,14.05
2023-04-16T21:53:58.147Z,14.00
2023-04-16T21:56:26.525Z,13.90
2023-04-16T21:58:54.560Z,13.83
2023-04-16T22:01:22.810Z,13.82
2023-04-16T22:03:52.306Z,13.80
2023-04-16T22:06:21.196Z,13.77
2023-04-16T22:08:50.268Z,13.74
2023-04-16T22:11:18.353Z,13.71
2023-04-16T22:13:47.812Z,13.74
2023-04-16T22:16:16.417Z,13.79
2023-04-16T22:18:45.483Z,13.80
2023-04-16T22:21:13.460Z,13.77
2023-04-16T22:23:41.522Z,13.75
2023-04-16T22:26:10.212Z,13.81
2023-04-16T22:28:38.364Z,13.88
2023-04-16T22:31:06.950Z,13.97
2023-04-16T22:33:35.420Z,14.04
2023-04-16T22:36:04.233Z,14.00
2023-04-16T22:38:32.491Z,13.94
2023-04-16T22:41:00.767Z,13.91
2023-04-16T22:43:28.824Z,13.94
2023-04-16T22:46:07.303Z,13.94
2023-04-16T22:48:38.203Z,13.96
2023-04-16T22:51:08.476Z,13.94
2023-04-16T22:53:36.948Z,13.94
2023-04-16T22:56:05.677Z,13.91
2023-04-16T22:58:33.702Z,13.81
2023-04-16T23:01:01.911Z,13.76
2023-04-16T23:03:30.849Z,13.74
2023-04-16T23:05:59.103Z,13.70
2023-04-16T23:08:27.414Z,13.65
2023-04-16T23:10:55.741Z,13.60
2023-04-16T23:13:23.912Z,13.58
2023-04-16T23:15:52.155Z,13.56
2023-04-16T23:18:20.389Z,13.52
2023-04-16T23:20:52.426Z,13.50
2023-04-16T23:23:20.620Z,13.49
2023-04-16T23:25:48.738Z,13.45
2023-04-16T23:28:16.883Z,13.38
2023-04-16T23:30:45.011Z,13.26
2023-04-16T23:33:13.402Z,13.15
2023-04-16T23:35:41.410Z,13.04
2023-04-16T23:38:09.583Z,13.00
2023-04-16T23:40:37.702Z,13.06
2023-04-16T23:43:05.760Z,13.12
2023-04-16T23:45:34.068Z,13.08
2023-04-16T23:48:02.753Z,13.08
2023-04-16T23:50:31.323Z,13.15
2023-04-16T23:52:59.429Z,13.12
2023-04-16T23:55:27.464Z,13.02
2023-04-16T23:57:55.940Z,12.91
